createdAt,value
2023-03-10T00:01:09.799Z,4.70
2023-03-10T00:03:56.580Z,3.93
2023-03-10T00:06:43.897Z,4.40
2023-03-10T00:09:30.371Z,3.63
2023-03-10T00:12:16.522Z,3.73
2023-03-10T00:15:02.727Z,5.20
2023-03-10T00:17:50.173Z,3.80
2023-03-10T00:20:36.609Z,2.70
2023-03-10T00:23:24.422Z,3.10
2023-03-10T00:26:12.882Z,3.20
2023-03-10T00:28:59.269Z,3.63
2023-03-10T00:31:45.858Z,4.97
2023-03-10T00:34:31.935Z,3.90
2023-03-10T00:37:18.818Z,4.37
2023-03-10T00:40:10.427Z,3.23
2023-03-10T00:42:57.057Z,3.47
2023-03-10T00:45:43.382Z,5.37
2023-03-10T00:48:30.257Z,5.73
2023-03-10T00:51:16.954Z,4.73
2023-03-10T00:54:03.681Z,6.37
2023-03-10T00:56:51.268Z,6.13
2023-03-10T00:59:49.965Z,7.23
2023-03-10T01:02:36.841Z,8.80
2023-03-10T01:05:23.618Z,8.10
2023-03-10T01:08:09.813Z,10.53
2023-03-10T01:10:55.896Z,7.77
2023-03-10T01:13:44.051Z,6.30
2023-03-10T01:16:30.604Z,5.60
2023-03-10T01:19:18.522Z,2.97
2023-03-10T01:22:05.179Z,3.37
2023-03-10T01:24:51.714Z,2.93
2023-03-10T01:27:38.083Z,3.40
2023-03-10T01:30:25.682Z,3.77
2023-03-10T01:33:12.407Z,3.00
2023-03-10T01:35:58.664Z,2.87
2023-03-10T01:38:45.318Z,4.80
2023-03-10T01:41:31.815Z,3.17
2023-03-10T01:44:20.138Z,7.23
2023-03-10T01:47:08.076Z,6.03
2023-03-10T01:49:54.588Z,4.77
2023-03-10T01:52:41.243Z,4.53
2023-03-10T01:55:31.160Z,5.97
2023-03-10T01:58:19.290Z,4.77
2023-03-10T02:01:06.979Z,4.37
2023-03-10T02:03:58.225Z,5.10
2023-03-10T02:06:47.137Z,5.13
2023-03-10T02:09:35.204Z,6.53
2023-03-10T02:12:21.838Z,3.67
2023-03-10T02:15:08.716Z,4.57
2023-03-10T02:17:55.050Z,3.60
2023-03-10T02:20:45.490Z,4.20
2023-03-10T02:23:35.692Z,4.13
2023-03-10T02:26:27.922Z,5.47
2023-03-10T02:29:18.279Z,4.13
2023-03-10T02:32:05.485Z,3.60
2023-03-10T02:34:51.666Z,3.27
2023-03-10T02:37:38.068Z,3.20
2023-03-10T02:40:29.866Z,5.53
2023-03-10T02:43:19.127Z,4.77
2023-03-10T02:46:08.372Z,3.90
2023-03-10T02:48:55.349Z,5.67
2023-03-10T02:51:42.535Z,3.93
2023-03-10T02:54:29.083Z,4.53
2023-03-10T02:57:15.665Z,4.83
2023-03-10T03:00:02.132Z,6.90
2023-03-10T03:02:50.061Z,4.90
2023-03-10T03:05:36.617Z,4.13
2023-03-10T03:08:22.905Z,5.80
2023-03-10T03:11:09.187Z,3.93
2023-03-10T03:13:55.853Z,4.93
2023-03-10T03:16:42.210Z,3.90
2023-03-10T03:19:30.096Z,4.53
2023-03-10T03:22:16.263Z,8.10
2023-03-10T03:25:02.519Z,3.67
2023-03-10T03:27:49.217Z,2.90
2023-03-10T03:30:35.641Z,2.10
2023-03-10T03:33:22.489Z,3.37
2023-03-10T03:36:10.508Z,4.67
2023-03-10T03:38:57.378Z,3.30
2023-03-10T03:41:44.098Z,6.30
2023-03-10T03:44:30.626Z,3.27
2023-03-10T03:47:17.081Z,4.87
2023-03-10T03:50:03.793Z,2.70
2023-03-10T03:52:51.950Z,4.13
2023-03-10T03:55:38.251Z,3.00
2023-03-10T03:58:24.600Z,4.70
2023-03-10T04:01:11.063Z,39.87
2023-03-10T04:03:57.202Z,23.40
2023-03-10T04:06:43.628Z,12.07
2023-03-10T04:09:31.606Z,11.37
2023-03-10T04:12:18.199Z,5.87
2023-03-10T04:15:05.216Z,27.50
2023-03-10T04:17:51.354Z,91.97
2023-03-10T04:20:38.022Z,20.10
2023-03-10T04:23:24.569Z,9.50
2023-03-10T04:26:12.071Z,6.60
2023-03-10T04:28:59.068Z,6.03
2023-03-10T04:31:55.836Z,6.13
2023-03-10T04:34:50.533Z,4.33
2023-03-10T04:37:37.019Z,5.47
2023-03-10T04:40:23.406Z,7.63
2023-03-10T04:43:11.008Z,14.60
2023-03-10T04:45:57.446Z,7.53
2023-03-10T04:48:44.043Z,9.33
2023-03-10T04:51:30.033Z,94.70
2023-03-10T04:54:16.293Z,220.83
2023-03-10T04:57:02.674Z,126.37
2023-03-10T04:59:50.379Z,97.60
2023-03-10T05:02:37.694Z,57.67
2023-03-10T05:05:23.870Z,14.17
2023-03-10T05:08:10.042Z,3.20
2023-03-10T05:10:56.620Z,5.23
2023-03-10T05:13:43.150Z,37.50
2023-03-10T05:16:31.058Z,51.27
2023-03-10T05:19:17.369Z,10.63
2023-03-10T05:22:03.852Z,6.17
2023-03-10T05:24:49.963Z,7.43
2023-03-10T05:27:37.125Z,7.00
2023-03-10T05:30:23.529Z,6.97
2023-03-10T05:33:11.118Z,40.47
2023-03-10T05:35:57.652Z,10.23
2023-03-10T05:38:44.087Z,123.60
2023-03-10T05:41:30.732Z,16.97
2023-03-10T05:44:16.866Z,11.67
2023-03-10T05:47:03.476Z,8.60
2023-03-10T05:49:51.279Z,9.07
2023-03-10T05:52:38.662Z,8.43
2023-03-10T05:55:25.166Z,6.13
2023-03-10T05:58:11.375Z,4.73
2023-03-10T06:00:57.664Z,4.33
2023-03-10T06:03:45.140Z,5.10
2023-03-10T06:06:32.991Z,3.40
2023-03-10T06:09:19.840Z,6.13
2023-03-10T06:12:06.395Z,4.20
2023-03-10T06:14:52.600Z,4.43
2023-03-10T06:17:38.827Z,3.50
2023-03-10T06:20:25.338Z,4.63
2023-03-10T06:23:13.169Z,5.83
2023-03-10T06:26:00.146Z,5.17
2023-03-10T06:28:47.023Z,3.77
2023-03-10T06:31:33.444Z,4.10
2023-03-10T06:34:19.931Z,5.17
2023-03-10T06:37:06.067Z,5.20
2023-03-10T06:39:53.671Z,3.97
2023-03-10T06:42:40.348Z,4.30
2023-03-10T06:45:26.648Z,4.27
2023-03-10T06:48:13.659Z,3.10
2023-03-10T06:51:00.018Z,2.70
2023-03-10T06:53:46.565Z,2.97
2023-03-10T06:56:34.013Z,3.20
2023-03-10T06:59:20.514Z,3.47
2023-03-10T07:02:07.320Z,4.53
2023-03-10T07:04:53.790Z,4.57
2023-03-10T07:07:40.086Z,4.60
2023-03-10T07:10:26.338Z,3.47
2023-03-10T07:13:16.337Z,5.00
2023-03-10T07:16:02.547Z,5.07
2023-03-10T07:18:49.044Z,5.93
2023-03-10T07:21:35.400Z,9.83
2023-03-10T07:24:22.084Z,5.70
2023-03-10T07:27:08.830Z,4.30
2023-03-10T07:29:56.550Z,3.40
2023-03-10T07:32:43.016Z,3.73
2023-03-10T07:35:29.516Z,3.33
2023-03-10T07:38:15.850Z,6.20
2023-03-10T07:41:02.271Z,3.50
2023-03-10T07:43:48.974Z,4.40
2023-03-10T07:46:36.380Z,2.63
2023-03-10T07:49:22.665Z,5.43
2023-03-10T07:52:09.228Z,4.93
2023-03-10T07:54:56.131Z,4.67
2023-03-10T07:57:42.742Z,5.80
2023-03-10T08:00:29.616Z,3.90
2023-03-10T08:03:17.269Z,8.10
2023-03-10T08:06:05.783Z,2.93
2023-03-10T08:08:52.864Z,2.73
2023-03-10T08:11:39.396Z,3.03
2023-03-10T08:14:25.745Z,2.60
2023-03-10T08:17:11.936Z,3.07
2023-03-10T08:20:00.004Z,7.20
2023-03-10T08:22:46.671Z,3.43
2023-03-10T08:25:33.143Z,3.97
2023-03-10T08:28:19.464Z,3.10
2023-03-10T08:31:08.861Z,4.23
2023-03-10T08:33:56.245Z,4.23
2023-03-10T08:36:44.911Z,2.90
2023-03-10T08:39:31.498Z,4.23
2023-03-10T08:42:17.602Z,3.43
2023-03-10T08:45:06.695Z,3.63
2023-03-10T08:47:54.446Z,5.00
2023-03-10T08:50:40.689Z,3.53
2023-03-10T08:53:28.676Z,5.93
2023-03-10T08:56:17.773Z,3.80
2023-03-10T08:59:04.139Z,3.53
2023-03-10T09:01:50.506Z,3.30
2023-03-10T09:04:37.151Z,2.93
2023-03-10T09:07:23.326Z,3.90
2023-03-10T09:10:11.659Z,2.40
2023-03-10T09:13:12.600Z,3.67
2023-03-10T09:16:00.320Z,2.07
2023-03-10T09:18:47.351Z,2.57
2023-03-10T09:21:34.139Z,2.13
2023-03-10T09:24:20.404Z,2.80
2023-03-10T09:27:07.930Z,2.20
2023-03-10T09:29:56.361Z,3.17
2023-03-10T09:32:44.891Z,2.87
2023-03-10T09:35:31.356Z,4.03
2023-03-10T09:38:18.462Z,1.70
2023-03-10T09:41:09.896Z,1.70
2023-03-10T09:44:00.540Z,1.33
2023-03-10T09:46:50.608Z,1.80
2023-03-10T09:49:38.598Z,1.37
2023-03-10T09:52:28.558Z,2.70
2023-03-10T09:55:19.485Z,3.07
2023-03-10T09:58:06.182Z,1.00
2023-03-10T10:00:54.313Z,1.30
2023-03-10T10:03:52.576Z,4.93
2023-03-10T10:06:42.419Z,2.87
2023-03-10T10:09:31.044Z,1.20
2023-03-10T10:12:18.793Z,1.40
2023-03-10T10:15:14.372Z,1.17
2023-03-10T10:18:17.943Z,0.93
2023-03-10T10:21:11.030Z,1.20
2023-03-10T10:23:59.353Z,1.57
2023-03-10T10:26:45.932Z,1.50
2023-03-10T10:29:35.023Z,1.50
2023-03-10T10:32:21.315Z,3.03
2023-03-10T10:35:22.946Z,1.27
2023-03-10T10:38:20.611Z,1.30
2023-03-10T10:41:08.297Z,1.40
2023-03-10T10:43:56.939Z,1.87
2023-03-10T10:46:52.006Z,1.40
2023-03-10T10:49:38.430Z,1.90
2023-03-10T10:52:25.642Z,1.50
2023-03-10T10:55:26.395Z,1.20
2023-03-10T10:58:25.839Z,1.40
2023-03-10T11:01:13.358Z,3.33
2023-03-10T11:04:05.508Z,2.60
2023-03-10T11:06:52.190Z,2.40
2023-03-10T11:09:38.554Z,1.80
2023-03-10T11:12:29.402Z,1.63
2023-03-10T11:15:21.229Z,1.17
2023-03-10T11:18:11.174Z,1.80
2023-03-10T11:21:02.424Z,1.57
2023-03-10T11:23:53.456Z,2.83
2023-03-10T11:26:46.992Z,2.03
2023-03-10T11:29:52.506Z,1.47
2023-03-10T11:32:44.114Z,2.00
2023-03-10T11:35:32.855Z,2.53
2023-03-10T11:38:22.767Z,1.40
2023-03-10T11:41:12.026Z,3.17
2023-03-10T11:44:00.449Z,1.80
2023-03-10T11:46:53.346Z,1.17
2023-03-10T11:49:43.701Z,1.73
2023-03-10T11:52:31.530Z,3.13
2023-03-10T11:55:20.080Z,2.23
2023-03-10T11:58:06.850Z,0.70
2023-03-10T12:00:54.286Z,1.53
2023-03-10T12:03:48.067Z,2.27
2023-03-10T12:06:37.092Z,1.30
2023-03-10T12:09:34.923Z,2.07
2023-03-10T12:12:26.095Z,1.40
2023-03-10T12:15:19.421Z,1.53
2023-03-10T12:18:06.595Z,1.50
2023-03-10T12:21:08.192Z,1.00
2023-03-10T12:23:56.551Z,1.77
2023-03-10T12:27:09.661Z,1.33
2023-03-10T12:29:55.962Z,1.70
2023-03-10T12:32:44.814Z,1.83
2023-03-10T12:35:48.693Z,1.73
2023-03-10T12:38:41.087Z,1.67
2023-03-10T12:41:54.755Z,2.43
2023-03-10T12:44:48.337Z,0.90
2023-03-10T12:47:47.043Z,1.90
2023-03-10T12:50:42.977Z,1.00
2023-03-10T12:53:33.378Z,1.40
2023-03-10T12:56:20.981Z,1.40
2023-03-10T12:59:10.137Z,1.20
2023-03-10T13:01:58.921Z,1.13
2023-03-10T13:04:45.314Z,1.93
2023-03-10T13:07:31.632Z,1.57
2023-03-10T13:10:19.919Z,1.43
2023-03-10T13:13:08.833Z,1.10
2023-03-10T13:15:58.836Z,1.23
2023-03-10T13:18:52.188Z,1.90
2023-03-10T13:21:42.037Z,2.40
2023-03-10T13:24:29.336Z,1.33
2023-03-10T13:27:17.093Z,3.53
2023-03-10T13:30:05.738Z,1.77
2023-03-10T13:32:56.311Z,4.90
2023-03-10T13:35:44.442Z,3.10
2023-03-10T13:38:30.805Z,2.23
2023-03-10T13:41:17.376Z,1.70
2023-03-10T13:44:03.580Z,5.03
2023-03-10T13:46:51.700Z,2.07
2023-03-10T13:49:38.100Z,1.67
2023-03-10T13:52:26.590Z,1.93
2023-03-10T13:55:14.145Z,2.30
2023-03-10T13:58:00.639Z,3.33
2023-03-10T14:00:50.685Z,2.20
2023-03-10T14:03:38.423Z,2.00
2023-03-10T14:06:25.146Z,2.07
2023-03-10T14:09:25.585Z,3.20
2023-03-10T14:12:12.512Z,4.30
2023-03-10T14:15:09.788Z,2.00
2023-03-10T14:18:10.749Z,4.30
2023-03-10T14:20:57.406Z,2.13
2023-03-10T14:23:43.986Z,3.27
2023-03-10T14:26:32.624Z,3.37
2023-03-10T14:29:18.933Z,3.80
2023-03-10T14:32:05.474Z,2.43
2023-03-10T14:34:51.981Z,2.93
2023-03-10T14:37:38.467Z,4.57
2023-03-10T14:40:26.148Z,5.37
2023-03-10T14:43:15.640Z,3.67
2023-03-10T14:46:02.815Z,2.03
2023-03-10T14:48:49.440Z,3.67
2023-03-10T14:51:36.627Z,1.90
2023-03-10T14:54:23.960Z,3.37
2023-03-10T14:57:11.573Z,3.80
2023-03-10T14:59:59.301Z,5.00
2023-03-10T15:02:46.217Z,2.27
2023-03-10T15:05:47.416Z,3.17
2023-03-10T15:08:34.508Z,3.20
2023-03-10T15:11:35.734Z,3.07
2023-03-10T15:14:23.320Z,2.53
2023-03-10T15:17:13.874Z,3.13
2023-03-10T15:20:00.292Z,2.47
2023-03-10T15:22:47.342Z,7.07
2023-03-10T15:25:33.781Z,2.83
2023-03-10T15:28:20.102Z,5.37
2023-03-10T15:31:06.689Z,4.63
2023-03-10T15:33:54.477Z,3.40
2023-03-10T15:36:42.898Z,5.77
2023-03-10T15:39:32.327Z,0.90
2023-03-10T15:42:19.279Z,2.47
2023-03-10T15:45:08.363Z,3.43
2023-03-10T15:47:55.285Z,4.20
2023-03-10T15:50:44.085Z,2.67
2023-03-10T15:53:30.162Z,2.60
2023-03-10T15:56:16.832Z,3.37
2023-03-10T15:59:04.694Z,7.33
2023-03-10T16:01:52.486Z,6.57
2023-03-10T16:04:38.958Z,4.50
2023-03-10T16:07:26.863Z,3.50
2023-03-10T16:10:14.352Z,5.40
2023-03-10T16:13:00.889Z,5.67
2023-03-10T16:15:47.513Z,3.20
2023-03-10T16:18:34.437Z,3.73
2023-03-10T16:21:20.889Z,2.07
2023-03-10T16:24:08.962Z,3.07
2023-03-10T16:26:55.301Z,2.50
2023-03-10T16:29:48.844Z,1.83
2023-03-10T16:32:35.564Z,2.33
2023-03-10T16:35:22.058Z,3.13
2023-03-10T16:38:08.551Z,8.27
2023-03-10T16:40:57.976Z,3.13
2023-03-10T16:43:44.406Z,6.87
2023-03-10T16:46:32.089Z,2.23
2023-03-10T16:49:18.785Z,4.03
2023-03-10T16:52:08.034Z,2.30
2023-03-10T16:54:58.028Z,4.80
2023-03-10T16:57:46.724Z,1.47
2023-03-10T17:00:33.571Z,5.43
2023-03-10T17:03:19.730Z,1.23
2023-03-10T17:06:06.815Z,4.60
2023-03-10T17:08:54.129Z,4.20
2023-03-10T17:11:41.101Z,2.70
2023-03-10T17:14:29.164Z,3.10
2023-03-10T17:17:15.654Z,2.90
2023-03-10T17:20:02.263Z,1.80
2023-03-10T17:22:48.501Z,3.73
2023-03-10T17:25:34.921Z,2.17
2023-03-10T17:28:21.044Z,5.07
2023-03-10T17:31:09.223Z,2.70
2023-03-10T17:33:56.436Z,4.20
2023-03-10T17:36:43.512Z,4.57
2023-03-10T17:39:30.134Z,3.43
2023-03-10T17:42:16.741Z,1.77
2023-03-10T17:45:05.862Z,6.67
2023-03-10T17:47:55.087Z,4.13
2023-03-10T17:50:41.621Z,4.10
2023-03-10T17:53:28.426Z,7.13
2023-03-10T17:56:16.206Z,6.10
2023-03-10T17:59:02.213Z,6.40
2023-03-10T18:01:49.672Z,3.47
2023-03-10T18:04:40.170Z,5.60
2023-03-10T18:07:27.618Z,2.73
2023-03-10T18:10:14.097Z,2.23
2023-03-10T18:13:00.316Z,3.67
2023-03-10T18:15:50.733Z,3.03
2023-03-10T18:18:37.535Z,3.27
2023-03-10T18:21:25.361Z,3.97
2023-03-10T18:24:11.859Z,2.67
2023-03-10T18:26:58.536Z,4.10
2023-03-10T18:29:44.642Z,3.53
2023-03-10T18:32:31.380Z,3.70
2023-03-10T18:35:17.905Z,3.63
2023-03-10T18:38:06.121Z,4.27
2023-03-10T18:40:57.511Z,7.67
2023-03-10T18:43:43.665Z,5.03
2023-03-10T18:46:30.571Z,3.07
2023-03-10T18:49:16.995Z,4.93
2023-03-10T18:52:03.036Z,6.47
2023-03-10T18:54:53.360Z,4.33
2023-03-10T18:57:39.978Z,2.17
2023-03-10T19:00:26.971Z,2.57
2023-03-10T19:03:13.751Z,3.53
2023-03-10T19:06:00.449Z,8.00
2023-03-10T19:08:46.692Z,2.60
2023-03-10T19:11:37.763Z,5.60
2023-03-10T19:14:24.231Z,9.63
2023-03-10T19:17:11.515Z,12.87
2023-03-10T19:19:57.871Z,6.03
2023-03-10T19:22:45.392Z,1.63
2023-03-10T19:25:31.864Z,2.00
2023-03-10T19:28:19.896Z,4.87
2023-03-10T19:31:11.660Z,4.77
2023-03-10T19:33:58.362Z,3.63
2023-03-10T19:36:44.924Z,1.80
2023-03-10T19:39:31.010Z,4.47
2023-03-10T19:42:17.523Z,2.47
2023-03-10T19:45:06.385Z,4.53
2023-03-10T19:47:52.714Z,2.70
2023-03-10T19:50:38.851Z,2.77
2023-03-10T19:53:25.252Z,4.07
2023-03-10T19:56:11.315Z,4.70
2023-03-10T19:58:57.724Z,2.30
2023-03-10T20:01:48.866Z,3.63
2023-03-10T20:04:36.209Z,2.70
2023-03-10T20:07:22.298Z,1.90
2023-03-10T20:10:09.605Z,4.20
2023-03-10T20:12:55.847Z,1.70
2023-03-10T20:15:42.248Z,2.33
2023-03-10T20:18:29.848Z,4.57
2023-03-10T20:21:16.613Z,2.53
2023-03-10T20:24:03.030Z,2.50
2023-03-10T20:26:50.124Z,4.57
2023-03-10T20:29:36.565Z,2.97
2023-03-10T20:32:23.299Z,1.43
2023-03-10T20:35:11.363Z,2.60
2023-03-10T20:37:57.736Z,2.27
2023-03-10T20:40:44.444Z,1.93
2023-03-10T20:43:31.041Z,2.50
2023-03-10T20:46:19.427Z,2.03
2023-03-10T20:49:06.089Z,1.93
2023-03-10T20:51:54.120Z,3.27
2023-03-10T20:54:40.621Z,3.83
2023-03-10T20:57:26.922Z,3.00
2023-03-10T21:00:13.767Z,2.53
2023-03-10T21:03:00.835Z,2.23
2023-03-10T21:05:47.314Z,3.03
2023-03-10T21:08:34.912Z,3.20
2023-03-10T21:11:21.765Z,2.77
2023-03-10T21:14:08.597Z,2.47
2023-03-10T21:16:59.865Z,2.00
2023-03-10T21:19:46.423Z,2.80
2023-03-10T21:22:35.208Z,3.73
2023-03-10T21:25:24.524Z,5.03
2023-03-10T21:28:11.123Z,2.77
2023-03-10T21:30:57.373Z,1.83
2023-03-10T21:33:43.719Z,2.43
2023-03-10T21:36:30.088Z,2.53
2023-03-10T21:39:16.581Z,2.50
2023-03-10T21:42:04.675Z,1.80
2023-03-10T21:44:52.516Z,2.33
2023-03-10T21:47:38.897Z,2.57
2023-03-10T21:50:25.609Z,1.70
2023-03-10T21:53:12.645Z,1.97
2023-03-10T21:56:00.782Z,1.80
2023-03-10T21:58:48.865Z,2.60
2023-03-10T22:01:35.370Z,2.07
2023-03-10T22:04:22.170Z,2.13
2023-03-10T22:07:08.691Z,2.63
2023-03-10T22:09:55.101Z,1.67
2023-03-10T22:12:41.486Z,2.00
2023-03-10T22:15:29.208Z,2.90
2023-03-10T22:18:15.562Z,3.47
2023-03-10T22:21:02.088Z,4.53
2023-03-10T22:23:48.659Z,3.27
2023-03-10T22:26:35.220Z,2.03
2023-03-10T22:29:21.641Z,1.50
2023-03-10T22:32:09.361Z,2.70
2023-03-10T22:34:55.891Z,0.93
2023-03-10T22:37:42.446Z,1.27
2023-03-10T22:40:28.790Z,3.03
2023-03-10T22:43:15.248Z,1.97
2023-03-10T22:46:07.488Z,1.63
2023-03-10T22:48:55.195Z,1.47
2023-03-10T22:51:41.811Z,3.67
2023-03-10T22:54:28.520Z,1.97
2023-03-10T22:57:15.302Z,2.70
2023-03-10T23:00:01.800Z,1.70
2023-03-10T23:02:48.513Z,1.83
2023-03-10T23:05:36.845Z,2.30
2023-03-10T23:08:23.315Z,2.53
2023-03-10T23:11:10.230Z,5.50
2023-03-10T23:13:58.292Z,3.20
2023-03-10T23:16:45.054Z,1.70
2023-03-10T23:19:31.300Z,3.27
2023-03-10T23:22:18.927Z,5.13
2023-03-10T23:25:05.701Z,2.37
2023-03-10T23:27:52.177Z,4.47
2023-03-10T23:30:39.330Z,3.37
2023-03-10T23:33:25.933Z,3.63
2023-03-10T23:36:13.687Z,2.30
2023-03-10T23:39:01.776Z,4.27
2023-03-10T23:41:48.389Z,2.60
2023-03-10T23:44:34.758Z,3.83
2023-03-10T23:47:21.340Z,3.90
2023-03-10T23:50:08.851Z,3.10
2023-03-10T23:52:55.030Z,3.40
2023-03-10T23:55:43.488Z,2.07
2023-03-10T23:58:29.875Z,2.73
